Details for Korean Air Cargo at RKSI




Go Back


Latest METAR
Local Time

RKSI 250430Z 22007KT 180V260 CAVOK 22/02 Q1008 NOSIG

25/05/2018, 13:58:58

Description
Results
Korean Air Cargo Logo
Number of Pilots based at RKSI
0 Pilots Based here
Number of Korean Air Cargo Flights Departed from RKSI
0 Flights Departed
Number of Korean Air Cargo Flights Arrived at RKSI
0 Flights Arrived
Number of Korean Air Cargo Schedules Departing from RKSI
48 Schedules
Number of Korean Air Cargo Schedules Arriving at RKSI
51 Schedules
Number of Korean Air Cargo Schedules Departing from RKSI availible today
20 Schedules Today
Number of Korean Air Cargo Schedules Arriving at RKSI availible today
17 Schedules Today
Average Landing Rate at RKSI
-355 fpm
Korean Air Cargo Average Landing Rate at RKSI
0 fpm
Total Fuel Purchased at RKSI by Korean Air Cargo
0.00 kgs / 0.00 lbs

Pilots Based at RKSI


Pilot ID
Pilot Name
Pilot Rank
No. of Flights
No. of Flying Hours
There are no pilots assigned to this hub!   Will you be the first?
Content